Aérodrome :







RETROUVEZ-NOUS SUR...

 
LOGIN :

S'inscrire | Disclaimer

   EN    FR    IT 

 









Légende :    VFR   VFR Marginal   IFR   IFR Intensif   IFR Très Intensif
Visi : 
Plafond : 
>= 8 km
>= 3000ft
5 à 8 km
1000 à 3000 ft
1500m à 5 km
500 à 1000 ft
800 à 1500m
200 à 500 ft
< 800m
< 200 ft
Symboles :   Orages  Brouillard  Fortes neiges  Fortes précipitations  Vent > 20 kt






- Altitude de l'aérodrome : 1194 ft


KPSF - Pittsfield Municipal

DERNIER METAR :
  • 111854Z AUTO 03004KT 10SM OVC055 08/01 A3000 RMK AO2 SLP157 T00830006

METARs EXPIRÉS :
  • 111754Z AUTO 02004KT 10SM OVC050 08/00 A3002 RMK AO2 SLP165 T00830000 10083 20028 58020
  • 111654Z AUTO 02003KT 10SM BKN050 OVC070 08/00 A3005 RMK AO2 SLP173 T00830000

TAF KPSF
Valide du 11 à 18h jusqu'au 12 à 18h UTC


111720Z 1118/1218 02004KT P6SM VCSH BKN025 OVC050
FM120000 04004KT P6SM VCSH OVC012
FM120600 14005KT P6SM VCSH OVC008
FM120900 25007KT 5SM -RASNPL OVC008
FM121200 27012G20KT 2SM -SN BR OVC006
FM121700 30013G22KT 4SM -SHSN BKN015



MET'MAP, la Météo Aéronautique d'un coup d'oeil ! - Copyright ORBIFLY Décembre 2007 - Disclaimer

ORBIFLY MET'MAP TEAM :

Programmation & Développement : Alexandra Zaïnal
Conception & Développement : Baudouin d'Aumeries
Co-Programmation & Développement : Marc-Olivier Méhu
Soutien technique & logistique : Manuel Goepfert

Contact : metmap@orbifly.com




SOURCES & CREDITS :

   NOAA